.
WxDataArchive / Data Records for 2012-08-02
2012-08-01 August 2012 2012-08-03

Data Records for Thursday, 02 August 2012

Time	Temp	Chill	HIndex	Humid	Dewpt	 Wind 	HiWind	WindDir	Rain 	Barom 
-----	----	-----	------	-----	-----	------	------	-------	-----	----- 
00:00	66.8	66.8	66.8	73	57.9	0	0	---	0.00	29.884 
00:05	66.4	66.4	66.4	73	57.5	0	0	---	0.00	29.884 
00:10	66.3	66.3	66.3	74	57.8	0	0	---	0.00	29.884 
00:15	66.1	66.1	66.1	75	57.9	0	0	---	0.00	29.872 
00:20	65.8	65.8	65.8	75	57.6	0	0	---	0.00	29.872 
00:25	65.6	65.6	65.6	75	57.5	0	0	---	0.00	29.872 
00:30	65.5	65.5	65.5	75	57.4	0	0	---	0.00	29.855 
00:35	65.3	65.3	65.3	76	57.5	0	0	---	0.00	29.855 
00:40	65.2	65.2	65.2	76	57.4	0	0	---	0.00	29.855 
00:45	65.0	65.0	65.0	77	57.6	0	0	---	0.00	29.860 
00:50	65.0	65.0	65.0	77	57.6	0	0	---	0.00	29.860 
00:55	64.8	64.8	64.8	77	57.4	0	0	---	0.00	29.860 
01:00	64.7	64.7	64.7	77	57.3	0	0	---	0.00	29.868 
01:05	64.7	64.7	64.7	77	57.3	0	0	---	0.00	29.868 
01:10	64.5	64.5	64.5	77	57.1	0	0	---	0.00	29.868 
01:15	64.5	64.5	64.5	77	57.1	0	0	---	0.00	29.875 
01:20	64.3	64.3	64.3	78	57.3	0	0	---	0.00	29.875 
01:25	64.3	64.3	64.3	78	57.3	0	0	---	0.00	29.875 
01:30	64.3	64.3	64.3	78	57.3	0	0	---	0.00	29.883 
01:35	64.3	64.3	64.3	78	57.3	0	0	---	0.00	29.883 
01:40	64.3	64.3	64.3	78	57.3	0	0	---	0.00	29.883 
01:45	64.3	64.3	64.3	79	57.6	0	0	---	0.00	29.881 
01:50	64.2	64.2	64.2	79	57.5	0	0	---	0.00	29.881 
01:55	64.2	64.2	64.2	79	57.5	0	0	---	0.00	29.881 
02:00	64.0	64.0	64.0	80	57.7	0	0	---	0.00	29.881 
02:05	63.7	63.7	63.7	80	57.4	0	0	---	0.00	29.881 
02:10	63.5	63.5	63.5	80	57.2	0	0	---	0.00	29.881 
02:15	63.4	63.4	63.4	81	57.5	0	0	---	0.00	29.874 
02:20	63.2	63.2	63.2	81	57.3	0	0	---	0.00	29.874 
02:25	63.1	63.1	63.1	81	57.2	0	0	---	0.00	29.874 
02:30	63.1	63.1	63.1	82	57.5	0	0	---	0.00	29.876 
02:35	62.9	62.9	62.9	82	57.3	0	0	---	0.00	29.876 
02:40	62.7	62.7	62.7	82	57.1	0	0	---	0.00	29.876 
02:45	62.6	62.6	62.6	83	57.4	0	0	---	0.00	29.870 
02:50	62.4	62.4	62.4	83	57.2	0	0	---	0.00	29.870 
02:55	62.4	62.4	62.4	83	57.2	0	0	---	0.00	29.870 
03:00	62.3	62.3	62.3	84	57.4	0	0	---	0.00	29.870 
03:05	62.3	62.3	62.3	84	57.4	0	0	---	0.00	29.870 
03:10	62.1	62.1	62.1	84	57.2	0	0	---	0.00	29.870 
03:15	62.0	62.0	62.0	85	57.4	0	0	---	0.00	29.868 
03:20	61.8	61.8	61.8	85	57.2	0	0	---	0.00	29.868 
03:25	61.8	61.8	61.8	85	57.2	0	0	---	0.00	29.868 
03:30	61.6	61.6	61.6	86	57.4	0	0	---	0.00	29.862 
03:35	61.5	61.5	61.5	86	57.3	0	0	---	0.00	29.862 
03:40	61.6	61.6	61.6	87	57.7	0	0	---	0.00	29.862 
03:45	61.5	61.5	61.5	87	57.6	0	0	---	0.00	29.865 
03:50	61.5	61.5	61.5	88	57.9	0	0	---	0.00	29.865 
03:55	61.3	61.3	61.3	88	57.7	0	0	---	0.00	29.865 
04:00	61.3	61.3	61.3	88	57.7	0	0	---	0.00	29.865 
04:05	61.2	61.2	61.2	88	57.6	0	0	---	0.00	29.865 
04:10	61.2	61.2	61.2	88	57.6	0	0	---	0.00	29.865 
04:15	61.2	61.2	61.2	89	57.9	0	0	---	0.00	29.870 
04:20	61.2	61.2	61.2	89	57.9	0	0	---	0.00	29.870 
04:25	61.2	61.2	61.2	90	58.2	0	0	---	0.00	29.870 
04:30	61.2	61.2	61.2	90	58.2	0	0	---	0.00	29.872 
04:35	61.0	61.0	61.0	90	58.0	0	0	---	0.00	29.872 
04:40	61.0	61.0	61.0	90	58.0	0	0	---	0.00	29.872 
04:45	60.9	60.9	60.9	90	57.9	0	0	---	0.00	29.875 
04:50	60.9	60.9	60.9	90	57.9	0	0	---	0.00	29.875 
04:55	60.7	60.7	60.7	90	57.7	0	0	---	0.00	29.875 
05:00	60.7	60.7	60.7	90	57.7	0	0	---	0.00	29.873 
05:05	60.5	60.5	60.5	90	57.5	0	0	---	0.00	29.873 
05:10	60.4	60.4	60.4	90	57.4	0	0	---	0.00	29.873 
05:15	60.4	60.4	60.4	91	57.8	0	0	---	0.00	29.874 
05:20	60.4	60.4	60.4	91	57.8	0	0	---	0.00	29.874 
05:25	60.4	60.4	60.4	91	57.8	0	0	---	0.00	29.874 
05:30	60.5	60.5	60.5	91	57.9	0	0	---	0.00	29.872 
05:35	60.5	60.5	60.5	91	57.9	0	0	---	0.00	29.872 
05:40	60.5	60.5	60.5	91	57.9	0	0	---	0.00	29.872 
05:45	60.5	60.5	60.5	91	57.9	0	0	---	0.00	29.872 
05:50	60.5	60.5	60.5	92	58.2	0	0	---	0.00	29.872 
05:55	60.5	60.5	60.5	92	58.2	0	0	---	0.00	29.872 
06:00	60.7	60.7	60.7	92	58.4	0	0	---	0.00	29.873 
06:05	60.7	60.7	60.7	92	58.4	0	0	---	0.00	29.873 
06:10	60.9	60.9	60.9	92	58.6	0	0	---	0.00	29.873 
06:15	60.7	60.7	60.7	92	58.4	0	0	---	0.00	29.860 
06:20	60.7	60.7	60.7	92	58.4	0	0	---	0.00	29.860 
06:25	60.9	60.9	60.9	92	58.6	0	0	---	0.00	29.860 
06:30	60.7	60.7	60.7	92	58.4	0	0	---	0.00	29.858 
06:35	60.7	60.7	60.7	92	58.4	0	0	---	0.00	29.858 
06:40	60.9	60.9	60.9	92	58.6	0	0	---	0.00	29.858 
06:45	60.9	60.9	60.9	92	58.6	0	0	---	0.00	29.851 
06:50	60.9	60.9	60.9	92	58.6	0	0	---	0.00	29.851 
06:55	60.9	60.9	60.9	92	58.6	0	0	---	0.00	29.851 
07:00	60.9	60.9	60.9	92	58.6	0	0	---	0.00	29.853 
07:05	60.9	60.9	60.9	92	58.6	0	0	---	0.00	29.853 
07:10	61.0	61.0	61.0	92	58.7	0	0	---	0.00	29.853 
07:15	61.2	61.2	61.2	92	58.9	0	0	---	0.00	29.861 
07:20	61.5	61.5	61.5	92	59.2	0	0	---	0.00	29.861 
07:25	61.8	61.8	61.8	92	59.4	0	0	---	0.00	29.861 
07:30	62.0	62.0	62.0	92	59.6	0	0	---	0.00	29.867 
07:35	62.3	62.3	62.3	92	59.9	0	0	---	0.00	29.867 
07:40	62.6	62.6	62.6	92	60.2	0	0	---	0.00	29.867 
07:45	62.9	62.9	62.9	92	60.5	0	0	---	0.00	29.871 
07:50	63.2	63.2	63.2	92	60.8	0	0	---	0.00	29.871 
07:55	63.7	63.7	63.7	92	61.3	0	0	---	0.00	29.871 
08:00	64.0	64.0	64.0	92	61.6	0	0	---	0.00	29.872 
08:05	64.7	64.7	64.7	91	62.0	0	0	---	0.00	29.872 
08:10	65.0	65.0	65.0	89	61.7	0	0	---	0.00	29.872 
08:15	65.3	65.3	65.3	88	61.6	0	0	---	0.00	29.880 
08:20	65.5	65.5	65.5	88	61.8	0	0	---	0.00	29.880 
08:25	65.8	65.8	65.8	87	61.8	0	0	---	0.00	29.880 
08:30	66.1	66.1	66.1	86	61.8	0	0	---	0.00	29.889 
08:35	66.9	66.9	66.9	84	61.9	0	0	---	0.00	29.889 
08:40	67.6	67.6	67.6	82	61.9	0	0	---	0.00	29.889 
08:45	68.6	68.6	68.6	81	62.5	0	0	---	0.00	29.889 
08:50	69.4	69.4	69.4	77	61.9	0	1	292	0.00	29.889 
08:55	70.3	70.3	70.3	75	62.0	0	1	292	0.00	29.889 
09:00	71.1	71.1	71.1	73	62.0	0	1	292	0.00	29.894 
09:05	72.0	72.0	72.0	70	61.7	0	1	292	0.00	29.894 
09:10	72.8	72.8	72.8	67	61.2	0	1	292	0.00	29.894 
09:15	73.9	73.9	73.9	63	60.5	0	2	292	0.00	29.896 
09:20	74.6	74.6	74.6	60	59.8	0	1	292	0.00	29.896 
09:25	74.9	74.9	74.9	58	59.1	0	2	292	0.00	29.896 
09:30	75.4	75.4	77.7	58	59.6	0	1	292	0.00	29.899 
09:35	76.3	76.3	78.3	56	59.4	0	1	292	0.00	29.899 
09:40	77.2	77.2	78.8	52	58.2	0	1	292	0.00	29.899 
09:45	78.1	78.1	79.3	50	57.9	0	1	292	0.00	29.892 
09:50	79.4	79.4	79.9	45	56.2	0	3	292	0.00	29.892 
09:55	80.5	80.5	80.7	45	57.2	0	3	292	0.00	29.892 
10:00	81.1	81.1	81.0	43	56.5	0	2	292	0.00	29.883 
10:05	81.6	81.6	81.1	40	54.9	1	3	292	0.00	29.883 
10:10	81.8	81.8	81.4	41	55.8	0	2	292	0.00	29.883 
10:15	82.0	82.0	81.5	40	55.3	0	3	0	0.00	29.881 
10:20	82.6	82.6	82.0	40	55.8	0	2	0	0.00	29.881 
10:25	83.0	83.0	82.3	40	56.2	1	3	0	0.00	29.881 
10:30	83.2	83.2	82.4	39	55.6	1	3	0	0.00	29.885 
10:35	83.4	83.4	82.6	39	55.8	1	2	0	0.00	29.885 
10:40	83.2	83.2	82.3	38	54.9	1	4	90	0.00	29.885 
10:45	83.6	83.6	82.6	38	55.3	0	2	90	0.00	29.882 
10:50	84.0	84.0	82.8	37	54.9	1	3	90	0.00	29.882 
10:55	84.0	84.0	82.7	36	54.1	1	3	90	0.00	29.882 
11:00	84.1	84.1	82.7	35	53.5	1	3	68	0.00	29.884 
11:05	84.3	84.3	82.7	34	52.8	1	4	68	0.00	29.884 
11:10	84.5	84.5	83.0	35	53.8	1	4	90	0.00	29.884 
11:15	84.9	84.9	83.3	34	53.4	0	3	90	0.00	29.890 
11:20	84.9	84.9	83.3	34	53.4	0	2	270	0.00	29.890 
11:25	84.9	84.9	83.3	34	53.4	1	2	270	0.00	29.890 
11:30	84.7	84.7	83.1	34	53.2	1	2	270	0.00	29.893 
11:35	84.5	84.5	82.8	33	52.2	1	3	270	0.00	29.893 
11:40	84.7	84.7	83.2	35	54.0	1	2	270	0.00	29.893 
11:45	85.5	85.5	83.8	34	53.9	1	2	270	0.00	29.895 
11:50	85.9	85.9	84.2	34	54.2	0	2	270	0.00	29.895 
11:55	85.7	85.7	83.9	33	53.2	0	3	270	0.00	29.895 
12:00	85.7	85.7	84.0	34	54.1	1	3	315	0.00	29.894 
12:05	85.7	85.7	83.7	32	52.4	1	3	315	0.00	29.894 
12:10	85.9	85.9	84.1	33	53.4	1	3	90	0.00	29.894 
12:15	86.1	86.1	84.1	32	52.8	1	3	90	0.00	29.892 
12:20	86.1	86.1	83.8	30	51.0	1	3	90	0.00	29.892 
12:25	85.9	85.9	83.8	31	51.7	1	2	270	0.00	29.892 
12:30	85.9	85.9	83.8	31	51.7	1	3	315	0.00	29.891 
12:35	85.9	85.9	83.9	32	52.6	0	2	315	0.00	29.891 
12:40	87.0	87.0	85.2	33	54.4	1	4	112	0.00	29.891 
12:45	87.4	87.4	85.0	29	51.2	2	3	270	0.00	29.886 
12:50	87.4	87.4	85.1	30	52.1	0	2	270	0.00	29.886 
12:55	87.6	87.6	85.7	32	54.1	0	2	270	0.00	29.886 
13:00	87.8	87.8	85.9	32	54.2	1	3	270	0.00	29.885 
13:05	87.8	87.8	85.7	31	53.4	0	2	270	0.00	29.885 
13:10	88.4	88.4	86.1	30	53.0	0	2	270	0.00	29.885 
13:15	88.8	88.8	86.6	30	53.3	0	2	270	0.00	29.883 
13:20	89.0	89.0	86.6	29	52.6	1	3	270	0.00	29.883 
13:25	88.8	88.8	87.0	32	55.1	1	3	90	0.00	29.883 
13:30	89.3	89.3	86.9	29	52.8	0	3	90	0.00	29.881 
13:35	89.5	89.5	87.2	29	53.0	0	2	90	0.00	29.881 
13:40	89.9	89.9	88.3	32	56.0	1	3	90	0.00	29.881 
13:45	90.3	90.3	87.7	27	51.7	1	3	112	0.00	29.877 
13:50	90.3	90.3	87.8	28	52.7	1	2	338	0.00	29.877 
13:55	90.5	90.5	88.1	28	52.9	1	4	68	0.00	29.877 
14:00	90.3	90.3	88.1	29	53.7	1	4	68	0.00	29.877 
14:05	89.7	89.7	87.8	31	55.0	1	3	292	0.00	29.877 
14:10	90.1	90.1	87.8	29	53.5	0	2	0	0.00	29.877 
14:15	90.3	90.3	88.3	30	54.6	1	3	45	0.00	29.876 
14:20	90.3	90.3	88.1	29	53.7	2	4	45	0.00	29.876 
14:25	89.9	89.9	87.8	30	54.3	1	4	90	0.00	29.876 
14:30	90.1	90.1	88.3	31	55.3	1	3	90	0.00	29.869 
14:35	90.1	90.1	87.6	28	52.6	0	1	90	0.00	29.869 
14:40	90.1	90.1	87.6	28	52.6	0	2	90	0.00	29.869 
14:45	90.3	90.3	87.8	28	52.7	0	2	90	0.00	29.868 
14:50	90.5	90.5	88.1	28	52.9	0	1	90	0.00	29.868 
14:55	91.2	91.2	89.4	30	55.4	0	2	90	0.00	29.868 
15:00	91.2	91.2	88.9	28	53.5	0	1	90	0.00	29.861 
15:05	91.4	91.4	88.9	27	52.7	1	4	90	0.00	29.861 
15:10	91.4	91.4	89.1	28	53.7	1	5	90	0.00	29.861 
15:15	91.6	91.6	89.1	27	52.8	1	3	90	0.00	29.858 
15:20	91.4	91.4	88.9	27	52.7	1	4	90	0.00	29.858 
15:25	91.4	91.4	89.1	28	53.7	1	4	90	0.00	29.858 
15:30	91.4	91.4	89.4	29	54.6	2	5	90	0.00	29.851 
15:35	91.2	91.2	89.6	31	56.3	2	4	90	0.00	29.851 
15:40	91.0	91.0	89.1	30	55.2	1	5	90	0.00	29.851 
15:45	91.4	91.4	89.1	28	53.7	1	2	158	0.00	29.850 
15:50	91.8	91.8	89.4	27	53.0	1	3	158	0.00	29.850 
15:55	92.1	92.1	89.7	27	53.3	1	4	315	0.00	29.850 
16:00	91.8	91.8	89.8	29	55.0	2	6	68	0.00	29.848 
16:05	91.4	91.4	89.6	30	55.6	2	4	90	0.00	29.848 
16:10	91.4	91.4	89.4	29	54.6	1	4	90	0.00	29.848 
16:15	91.6	91.6	90.1	31	56.6	2	6	90	0.00	29.845 
16:20	91.6	91.6	89.6	29	54.8	1	3	90	0.00	29.845 
16:25	92.1	92.1	90.0	28	54.3	0	2	90	0.00	29.845 
16:30	92.3	92.3	90.2	28	54.4	1	4	90	0.00	29.843 
16:35	92.3	92.3	91.0	31	57.2	1	3	112	0.00	29.843 
16:40	92.3	92.3	90.7	30	56.3	1	4	112	0.00	29.843 
16:45	92.1	92.1	90.0	28	54.3	1	3	112	0.00	29.837 
16:50	91.8	91.8	89.6	28	54.0	1	3	135	0.00	29.837 
16:55	91.4	91.4	89.1	28	53.7	2	5	112	0.00	29.837 
17:00	91.4	91.4	88.9	27	52.7	1	2	68	0.00	29.836 
17:05	91.2	91.2	88.7	27	52.5	2	4	112	0.00	29.836 
17:10	90.7	90.7	88.3	28	53.1	1	4	112	0.00	29.836 
17:15	90.5	90.5	87.9	27	51.9	2	5	90	0.00	29.825 
17:20	90.3	90.3	88.1	29	53.7	2	6	112	0.00	29.825 
17:25	90.3	90.3	88.1	29	53.7	2	4	90	0.00	29.825 
17:30	90.3	90.3	88.1	29	53.7	1	5	135	0.00	29.825 
17:35	90.5	90.5	87.9	27	51.9	1	3	90	0.00	29.825 
17:40	90.7	90.7	88.3	28	53.1	1	3	90	0.00	29.825 
17:45	90.5	90.5	88.1	28	52.9	1	3	112	0.00	29.823 
17:50	90.7	90.7	88.1	27	52.1	1	3	90	0.00	29.823 
17:55	90.5	90.5	87.9	27	51.9	1	3	135	0.00	29.823 
18:00	90.3	90.3	88.1	29	53.7	1	4	90	0.00	29.823 
18:05	90.1	90.1	88.0	30	54.4	1	4	90	0.00	29.823 
18:10	89.9	89.9	87.8	30	54.3	1	5	90	0.00	29.823 
18:15	89.5	89.5	87.2	29	53.0	2	5	90	0.00	29.822 
18:20	89.0	89.0	86.8	30	53.5	1	5	68	0.00	29.822 
18:25	88.6	88.6	86.4	30	53.2	1	4	68	0.00	29.822 
18:30	88.4	88.4	86.3	31	53.9	1	2	112	0.00	29.823 
18:35	88.2	88.2	86.1	31	53.7	0	2	112	0.00	29.823 
18:40	88.4	88.4	86.3	31	53.9	1	4	90	0.00	29.823 
18:45	88.4	88.4	86.5	32	54.7	2	5	90	0.00	29.821 
18:50	88.4	88.4	86.5	32	54.7	2	4	90	0.00	29.821 
18:55	88.4	88.4	86.3	31	53.9	2	4	90	0.00	29.821 
19:00	88.2	88.2	86.3	32	54.6	1	3	90	0.00	29.822 
19:05	88.2	88.2	86.5	33	55.4	1	3	90	0.00	29.822 
19:10	88.0	88.0	86.3	33	55.2	1	3	158	0.00	29.822 
19:15	87.8	87.8	86.3	34	55.9	1	4	68	0.00	29.820 
19:20	87.6	87.6	86.0	34	55.7	1	3	68	0.00	29.820 
19:25	87.2	87.2	85.6	34	55.4	1	4	68	0.00	29.820 
19:30	87.0	87.0	85.6	35	56.0	1	3	68	0.00	29.822 
19:35	86.7	86.7	85.2	35	55.7	0	2	68	0.00	29.822 
19:40	86.5	86.5	85.2	36	56.3	0	2	68	0.00	29.822 
19:45	86.1	86.1	85.0	37	56.7	0	2	68	0.00	29.824 
19:50	85.9	85.9	84.9	38	57.3	0	1	68	0.00	29.824 
19:55	85.5	85.5	84.5	38	57.0	0	1	68	0.00	29.824 
20:00	85.3	85.3	84.3	38	56.8	0	1	68	0.00	29.822 
20:05	84.9	84.9	84.0	39	57.1	0	1	68	0.00	29.822 
20:10	84.7	84.7	83.8	39	57.0	0	0	---	0.00	29.822 
20:15	84.3	84.3	83.4	39	56.6	0	1	68	0.00	29.816 
20:20	84.1	84.1	83.4	40	57.1	0	0	---	0.00	29.816 
20:25	83.8	83.8	83.2	41	57.6	0	0	---	0.00	29.816 
20:30	83.4	83.4	83.0	42	57.9	0	1	68	0.00	29.818 
20:35	83.2	83.2	82.8	42	57.7	0	0	---	0.00	29.818 
20:40	83.0	83.0	82.8	43	58.2	0	0	---	0.00	29.818 
20:45	82.6	82.6	82.4	43	57.8	0	0	---	0.00	29.821 
20:50	82.4	82.4	82.3	44	58.3	0	0	---	0.00	29.821 
20:55	82.2	82.2	82.3	45	58.7	0	0	---	0.00	29.821 
21:00	81.8	81.8	82.0	46	59.0	0	0	---	0.00	29.835 
21:05	81.4	81.4	81.9	48	59.8	0	0	---	0.00	29.835 
21:10	81.1	81.1	81.5	47	58.9	0	0	---	0.00	29.835 
21:15	80.7	80.7	81.2	48	59.2	0	0	---	0.00	29.818 
21:20	80.3	80.3	81.0	49	59.4	0	0	---	0.00	29.818 
21:25	80.1	80.1	80.9	50	59.8	0	0	---	0.00	29.818 
21:30	79.8	79.8	80.6	50	59.5	0	0	---	0.00	29.825 
21:35	79.4	79.4	80.3	50	59.1	0	0	---	0.00	29.825 
21:40	78.8	78.8	79.9	52	59.7	0	0	---	0.00	29.825 
21:45	78.3	78.3	79.7	54	60.3	0	0	---	0.00	29.829 
21:50	77.9	77.9	79.4	55	60.4	0	0	---	0.00	29.829 
21:55	77.6	77.6	79.2	57	61.1	0	0	---	0.00	29.829 
22:00	77.2	77.2	78.9	58	61.3	0	0	---	0.00	29.829 
22:05	76.8	76.8	78.6	58	60.9	0	0	---	0.00	29.829 
22:10	76.5	76.5	78.4	59	61.1	0	0	---	0.00	29.829 
22:15	76.3	76.3	78.2	59	60.9	0	0	---	0.00	29.830 
22:20	76.0	76.0	78.0	59	60.6	0	0	---	0.00	29.830 
22:25	75.6	75.6	77.8	59	60.2	0	0	---	0.00	29.830 
22:30	75.4	75.4	77.6	60	60.5	0	0	---	0.00	29.838 
22:35	75.1	75.1	77.4	60	60.2	0	0	---	0.00	29.838 
22:40	75.1	75.1	77.4	61	60.7	0	0	---	0.00	29.838 
22:45	74.9	74.9	74.9	62	61.0	0	0	---	0.00	29.833 
22:50	74.7	74.7	74.7	62	60.8	0	0	---	0.00	29.833 
22:55	74.4	74.4	74.4	62	60.5	0	0	---	0.00	29.833 
23:00	74.2	74.2	74.2	62	60.3	0	0	---	0.00	29.830 
23:05	74.0	74.0	74.0	62	60.1	0	0	---	0.00	29.830 
23:10	73.9	73.9	73.9	62	60.0	0	0	---	0.00	29.830 
23:15	73.7	73.7	73.7	62	59.9	0	0	---	0.00	29.829 
23:20	73.5	73.5	73.5	63	60.1	0	0	---	0.00	29.829 
23:25	73.3	73.3	73.3	64	60.4	0	0	---	0.00	29.829 
23:30	73.2	73.2	73.2	65	60.7	0	0	---	0.00	29.829 
23:35	73.2	73.2	73.2	65	60.7	0	0	---	0.00	29.829 
23:40	73.0	73.0	73.0	65	60.5	0	0	---	0.00	29.829 
23:45	72.8	72.8	72.8	65	60.3	0	0	---	0.00	29.829 
23:50	72.8	72.8	72.8	66	60.8	0	0	---	0.00	29.829 
23:55	72.7	72.7	72.7	65	60.2	0	0	---	0.00	29.829 

CoCoRaHS
IN-AL-39
A2 Web Hosting
Creative Commons License
GoDaddy
search engine by freefind advanced

loaded 2018-11-15 03:01:22 • last modified 2010-11-18 10:43:29
Privacy PolicyDisclaimer
• wx.awcolley.com is powered by PmWiki v.2002016 •
• all content (unless otherwise noted) © 2018 A W Colley